createdAt,value
2022-09-07T00:00:39.421Z,5.64
2022-09-07T00:03:06.139Z,5.64
2022-09-07T00:05:33.144Z,5.61
2022-09-07T00:08:00.122Z,5.59
2022-09-07T00:10:26.907Z,5.56
2022-09-07T00:12:53.657Z,5.54
2022-09-07T00:15:20.397Z,5.50
2022-09-07T00:17:47.117Z,5.46
2022-09-07T00:20:15.120Z,5.42
2022-09-07T00:22:41.938Z,5.38
2022-09-07T00:25:09.004Z,5.36
2022-09-07T00:27:35.733Z,5.36
2022-09-07T00:30:02.542Z,5.37
2022-09-07T00:32:29.157Z,5.37
2022-09-07T00:34:55.860Z,5.35
2022-09-07T00:37:22.694Z,5.35
2022-09-07T00:39:49.793Z,5.33
2022-09-07T00:42:19.298Z,5.30
2022-09-07T00:44:57.750Z,5.27
2022-09-07T00:47:47.237Z,5.23
2022-09-07T00:50:22.002Z,5.22
2022-09-07T00:52:50.288Z,5.20
2022-09-07T00:55:17.075Z,5.18
2022-09-07T00:57:47.019Z,5.15
2022-09-07T01:00:14.153Z,5.15
2022-09-07T01:02:41.126Z,5.18
2022-09-07T01:05:13.846Z,5.19
2022-09-07T01:07:40.622Z,5.17
2022-09-07T01:10:07.838Z,5.14
2022-09-07T01:12:34.638Z,5.13
2022-09-07T01:15:01.306Z,5.13
2022-09-07T01:17:31.933Z,5.13
2022-09-07T01:20:01.595Z,5.13
2022-09-07T01:22:47.067Z,5.13
2022-09-07T01:25:16.908Z,5.12
2022-09-07T01:27:53.312Z,5.09
2022-09-07T01:30:20.711Z,5.06
2022-09-07T01:32:47.394Z,5.03
2022-09-07T01:35:29.768Z,5.01
2022-09-07T01:37:58.741Z,4.99
2022-09-07T01:40:56.753Z,4.96
2022-09-07T01:43:33.035Z,4.94
2022-09-07T01:45:59.815Z,4.90
2022-09-07T01:48:26.579Z,4.87
2022-09-07T01:51:03.416Z,4.84
2022-09-07T01:53:34.108Z,4.80
2022-09-07T01:56:03.755Z,4.79
2022-09-07T01:58:33.989Z,4.81
2022-09-07T02:01:26.083Z,4.82
2022-09-07T02:04:08.156Z,4.81
2022-09-07T02:06:42.555Z,4.84
2022-09-07T02:09:30.337Z,4.87
2022-09-07T02:11:57.107Z,4.88
2022-09-07T02:14:25.991Z,4.88
2022-09-07T02:16:59.050Z,4.88
2022-09-07T02:19:27.508Z,4.88
2022-09-07T02:21:59.640Z,4.91
2022-09-07T02:24:37.770Z,4.95
2022-09-07T02:27:07.900Z,4.96
2022-09-07T02:29:35.502Z,4.99
2022-09-07T02:32:02.416Z,4.99
2022-09-07T02:34:29.106Z,4.97
2022-09-07T02:36:55.862Z,4.96
2022-09-07T02:39:22.549Z,4.95
2022-09-07T02:41:49.285Z,4.93
2022-09-07T02:44:25.587Z,4.89
2022-09-07T02:47:01.595Z,4.85
2022-09-07T02:49:53.168Z,4.82
2022-09-07T02:52:51.213Z,4.81
2022-09-07T02:55:30.160Z,4.77
2022-09-07T02:58:29.235Z,4.74
2022-09-07T03:01:00.857Z,4.69
2022-09-07T03:03:47.778Z,4.68
2022-09-07T03:06:24.448Z,4.67
2022-09-07T03:08:53.585Z,4.67
2022-09-07T03:11:20.375Z,4.63
2022-09-07T03:13:47.108Z,4.61
2022-09-07T03:16:14.477Z,4.58
2022-09-07T03:18:42.312Z,4.57
2022-09-07T03:21:09.152Z,4.58
2022-09-07T03:23:37.484Z,4.57
2022-09-07T03:26:04.574Z,4.55
2022-09-07T03:28:31.389Z,4.54
2022-09-07T03:30:58.196Z,4.57
2022-09-07T03:33:24.976Z,4.63
2022-09-07T03:35:59.894Z,4.66
2022-09-07T03:38:26.741Z,4.69
2022-09-07T03:41:00.410Z,4.70
2022-09-07T03:43:27.910Z,4.69
2022-09-07T03:46:02.241Z,4.67
2022-09-07T03:48:35.363Z,4.68
2022-09-07T03:51:06.625Z,4.67
2022-09-07T03:53:37.957Z,4.66
2022-09-07T03:56:16.174Z,4.64
2022-09-07T03:58:42.963Z,4.64
2022-09-07T04:01:12.300Z,4.67
2022-09-07T04:03:39.630Z,4.73
2022-09-07T04:06:06.379Z,4.81
2022-09-07T04:08:36.129Z,4.89
2022-09-07T04:11:04.249Z,4.99
2022-09-07T04:13:31.260Z,5.12
2022-09-07T04:15:58.100Z,5.30
2022-09-07T04:18:24.989Z,5.57
2022-09-07T04:20:51.999Z,5.85
2022-09-07T04:23:19.132Z,6.10
2022-09-07T04:28:36.783Z,6.50
2022-09-07T04:31:03.557Z,6.62
2022-09-07T04:33:33.714Z,6.80
2022-09-07T04:36:01.129Z,7.07
2022-09-07T04:38:28.280Z,7.41
2022-09-07T04:41:02.427Z,7.75
2022-09-07T04:43:29.739Z,8.10
2022-09-07T04:45:56.619Z,8.40
2022-09-07T04:48:23.335Z,8.67
2022-09-07T04:50:52.092Z,8.95
2022-09-07T04:53:19.760Z,9.21
2022-09-07T04:55:46.542Z,9.38
2022-09-07T04:58:13.213Z,9.48
2022-09-07T05:00:40.244Z,9.54
2022-09-07T05:03:06.965Z,9.59
2022-09-07T05:05:35.991Z,9.64
2022-09-07T05:08:03.005Z,9.64
2022-09-07T05:10:29.701Z,9.63
2022-09-07T05:12:56.700Z,9.62
2022-09-07T05:15:23.427Z,9.64
2022-09-07T05:17:51.087Z,9.70
2022-09-07T05:20:20.469Z,9.72
2022-09-07T05:22:47.641Z,9.75
2022-09-07T05:25:14.847Z,9.83
2022-09-07T05:27:41.709Z,9.97
2022-09-07T05:30:09.402Z,10.15
2022-09-07T05:32:56.545Z,10.37
2022-09-07T05:35:23.260Z,10.57
2022-09-07T05:37:50.582Z,10.74
2022-09-07T05:40:17.778Z,10.87
2022-09-07T05:42:44.614Z,10.99
2022-09-07T05:45:11.419Z,11.09
2022-09-07T05:47:38.196Z,11.17
2022-09-07T05:50:05.862Z,11.23
2022-09-07T05:52:32.984Z,11.27
2022-09-07T05:55:13.363Z,11.29
2022-09-07T05:57:46.468Z,11.30
2022-09-07T06:00:14.516Z,11.33
2022-09-07T06:02:41.299Z,11.36
2022-09-07T06:05:08.879Z,11.37
2022-09-07T06:07:35.756Z,11.38
2022-09-07T06:12:49.554Z,11.43
2022-09-07T06:15:16.517Z,11.46
2022-09-07T06:17:43.267Z,11.49
2022-09-07T06:20:10.063Z,11.54
2022-09-07T06:22:37.444Z,11.59
2022-09-07T06:25:05.322Z,11.64
2022-09-07T06:27:32.128Z,11.67
2022-09-07T06:29:58.967Z,11.72
2022-09-07T06:35:13.091Z,11.79
2022-09-07T06:37:40.120Z,11.83
2022-09-07T06:40:08.075Z,11.89
2022-09-07T06:42:35.173Z,11.93
2022-09-07T06:45:02.638Z,11.96
2022-09-07T06:47:29.489Z,12.02
2022-09-07T06:49:56.339Z,12.04
2022-09-07T06:52:23.222Z,12.06
2022-09-07T06:54:59.623Z,12.12
2022-09-07T06:57:27.216Z,12.18
2022-09-07T06:59:54.220Z,12.26
2022-09-07T07:02:21.498Z,12.33
2022-09-07T07:04:48.200Z,12.38
2022-09-07T07:07:14.929Z,12.44
2022-09-07T07:09:41.983Z,12.52
2022-09-07T07:12:09.766Z,12.58
2022-09-07T07:14:39.631Z,12.65
2022-09-07T07:17:09.564Z,12.74
2022-09-07T07:19:36.272Z,12.80
2022-09-07T07:22:18.679Z,12.87
2022-09-07T07:24:49.670Z,12.94
2022-09-07T07:27:16.678Z,12.99
2022-09-07T07:29:43.422Z,13.01
2022-09-07T07:32:10.123Z,13.05
2022-09-07T07:34:36.886Z,13.10
2022-09-07T07:37:03.629Z,13.15
2022-09-07T07:42:16.844Z,13.26
2022-09-07T07:44:43.472Z,13.32
2022-09-07T07:47:10.338Z,13.33
2022-09-07T07:49:37.070Z,13.37
2022-09-07T07:54:50.559Z,13.48
2022-09-07T07:57:18.992Z,13.52
2022-09-07T07:59:45.952Z,13.56
2022-09-07T08:02:15.287Z,13.63
2022-09-07T08:04:42.198Z,13.69
2022-09-07T08:07:11.034Z,13.76
2022-09-07T08:09:39.913Z,13.83
2022-09-07T08:12:06.914Z,13.91
2022-09-07T08:14:36.523Z,13.90
2022-09-07T08:17:03.228Z,13.89
2022-09-07T08:19:30.064Z,13.89
2022-09-07T08:21:56.767Z,13.92
2022-09-07T08:24:23.515Z,13.99
2022-09-07T08:26:50.344Z,14.04
2022-09-07T08:29:17.134Z,14.09
2022-09-07T08:31:44.678Z,14.14
2022-09-07T08:34:11.478Z,14.21
2022-09-07T08:36:38.313Z,14.25
2022-09-07T08:39:09.467Z,14.32
2022-09-07T08:41:36.256Z,14.41
2022-09-07T08:44:05.512Z,14.50
2022-09-07T08:46:47.581Z,14.59
2022-09-07T08:49:33.277Z,14.66
2022-09-07T08:52:13.418Z,14.73
2022-09-07T08:54:40.241Z,14.77
2022-09-07T08:57:23.665Z,14.80
2022-09-07T09:00:02.495Z,14.82
2022-09-07T09:02:32.735Z,14.80
2022-09-07T09:05:18.532Z,14.74
2022-09-07T09:07:48.652Z,14.76
2022-09-07T09:10:22.542Z,14.81
2022-09-07T09:13:03.370Z,14.88
2022-09-07T09:15:52.402Z,14.95
2022-09-07T09:18:34.135Z,15.02
2022-09-07T09:21:01.152Z,15.06
2022-09-07T09:23:39.475Z,15.07
2022-09-07T09:26:15.493Z,15.08
2022-09-07T09:28:42.433Z,15.11
2022-09-07T09:31:23.338Z,15.13
2022-09-07T09:34:05.352Z,15.16
2022-09-07T09:36:34.441Z,15.22
2022-09-07T09:39:01.378Z,15.26
2022-09-07T09:41:37.843Z,15.30
2022-09-07T09:44:04.666Z,15.34
2022-09-07T09:46:33.517Z,15.38
2022-09-07T09:49:01.788Z,15.41
2022-09-07T09:54:25.965Z,15.44
2022-09-07T09:56:53.510Z,15.44
2022-09-07T10:05:27.591Z,15.47
2022-09-07T10:07:54.558Z,15.48
2022-09-07T10:10:21.352Z,15.48
2022-09-07T10:12:48.216Z,15.49
2022-09-07T10:15:40.102Z,15.51
2022-09-07T10:18:09.690Z,15.55
2022-09-07T10:20:37.903Z,15.56
2022-09-07T10:23:05.635Z,15.56
2022-09-07T10:25:39.783Z,15.53
2022-09-07T10:28:10.103Z,15.51
2022-09-07T10:30:50.324Z,15.54
2022-09-07T10:33:24.643Z,15.59
2022-09-07T10:36:01.810Z,15.59
2022-09-07T10:38:28.811Z,15.57
2022-09-07T10:41:10.923Z,15.61
2022-09-07T10:43:43.922Z,15.66
2022-09-07T10:49:33.274Z,15.76
2022-09-07T10:52:09.156Z,15.79
2022-09-07T10:54:55.277Z,15.84
2022-09-07T10:57:22.028Z,15.92
2022-09-07T11:00:14.165Z,15.98
2022-09-07T11:06:05.437Z,16.13
2022-09-07T11:09:15.697Z,16.19
2022-09-07T11:14:16.885Z,16.24
2022-09-07T11:16:51.199Z,16.26
2022-09-07T11:19:35.290Z,16.29
2022-09-07T11:22:37.258Z,16.35
2022-09-07T11:25:33.802Z,16.42
2022-09-07T11:28:29.128Z,16.47
2022-09-07T11:31:00.231Z,16.50
2022-09-07T11:33:42.136Z,16.51
2022-09-07T11:36:12.700Z,16.52
2022-09-07T11:38:51.344Z,16.52
2022-09-07T11:41:32.411Z,16.54
2022-09-07T11:44:28.460Z,16.57
2022-09-07T11:46:57.918Z,16.58
2022-09-07T11:49:26.044Z,16.56
2022-09-07T11:52:19.304Z,16.52
2022-09-07T11:54:48.895Z,16.51
2022-09-07T11:57:15.799Z,16.52
2022-09-07T12:00:06.353Z,16.56
2022-09-07T12:02:59.972Z,16.61
2022-09-07T12:05:52.341Z,16.63
2022-09-07T12:08:40.571Z,16.62
2022-09-07T12:11:20.124Z,16.55
2022-09-07T12:14:04.154Z,16.51
2022-09-07T12:16:55.563Z,16.51
2022-09-07T12:19:25.699Z,16.52
2022-09-07T12:21:52.373Z,16.55
2022-09-07T12:24:37.808Z,16.58
2022-09-07T12:27:26.440Z,16.63
2022-09-07T12:30:01.276Z,16.68
2022-09-07T12:32:54.984Z,16.69
2022-09-07T12:35:29.807Z,16.66
2022-09-07T12:37:57.566Z,16.68
2022-09-07T12:40:27.679Z,16.71
2022-09-07T12:43:12.751Z,16.73
2022-09-07T12:45:39.501Z,16.75
2022-09-07T12:48:15.501Z,16.77
2022-09-07T12:50:56.695Z,16.77
2022-09-07T12:53:48.336Z,16.80
2022-09-07T12:56:36.370Z,16.83
2022-09-07T12:59:26.248Z,16.88
2022-09-07T13:02:11.880Z,16.92
2022-09-07T13:04:59.873Z,16.95
2022-09-07T13:07:35.653Z,16.99
2022-09-07T13:10:04.650Z,17.04
2022-09-07T13:12:54.768Z,17.06
2022-09-07T13:15:41.047Z,17.08
2022-09-07T13:18:29.802Z,17.11
2022-09-07T13:21:08.770Z,17.13
2022-09-07T13:23:37.942Z,17.16
2022-09-07T13:26:09.679Z,17.18
2022-09-07T13:28:48.702Z,17.17
2022-09-07T13:31:34.065Z,17.15
2022-09-07T13:34:00.923Z,17.16
2022-09-07T13:36:39.441Z,17.19
2022-09-07T13:39:09.656Z,17.23
2022-09-07T13:41:38.199Z,17.27
2022-09-07T13:44:05.743Z,17.29
2022-09-07T13:46:50.645Z,17.30
2022-09-07T13:49:32.540Z,17.32
2022-09-07T13:52:14.205Z,17.31
2022-09-07T13:55:08.091Z,17.30
2022-09-07T13:58:11.827Z,17.28
2022-09-07T14:00:52.993Z,17.27
2022-09-07T14:03:19.779Z,17.27
2022-09-07T14:05:46.500Z,17.29
2022-09-07T14:08:29.467Z,17.30
2022-09-07T14:10:56.156Z,17.27
2022-09-07T14:13:22.849Z,17.24
2022-09-07T14:15:49.849Z,17.23
2022-09-07T14:18:18.921Z,17.24
2022-09-07T14:20:50.069Z,17.26
2022-09-07T14:23:19.348Z,17.27
2022-09-07T14:28:35.990Z,17.27
2022-09-07T14:31:03.095Z,17.28
2022-09-07T14:33:29.869Z,17.28
2022-09-07T14:35:57.262Z,17.26
2022-09-07T14:41:13.850Z,17.23
2022-09-07T14:43:53.856Z,17.20
2022-09-07T14:46:25.284Z,17.19
2022-09-07T14:49:02.670Z,17.17
2022-09-07T14:51:36.140Z,17.15
2022-09-07T14:54:07.597Z,17.13
2022-09-07T14:56:40.207Z,17.13
2022-09-07T14:59:36.734Z,17.11
2022-09-07T15:02:24.757Z,17.10
2022-09-07T15:05:12.784Z,17.08
2022-09-07T15:07:40.922Z,17.05
2022-09-07T15:10:23.557Z,17.03
2022-09-07T15:12:55.122Z,17.01
2022-09-07T15:15:26.145Z,16.99
2022-09-07T15:17:54.512Z,16.97
2022-09-07T15:20:31.596Z,16.95
2022-09-07T15:22:58.457Z,16.93
2022-09-07T15:25:25.220Z,16.90
2022-09-07T15:27:51.959Z,16.87
2022-09-07T15:30:18.778Z,16.84
2022-09-07T15:32:45.550Z,16.81
2022-09-07T15:35:12.517Z,16.77
2022-09-07T15:40:26.068Z,16.69
2022-09-07T15:43:00.515Z,16.65
2022-09-07T15:45:27.474Z,16.61
2022-09-07T15:47:54.276Z,16.56
2022-09-07T15:50:23.146Z,16.50
2022-09-07T15:52:50.572Z,16.44
2022-09-07T15:55:17.788Z,16.40
2022-09-07T15:57:49.218Z,16.35
2022-09-07T16:00:17.207Z,16.30
2022-09-07T16:05:31.552Z,16.19
2022-09-07T16:10:53.578Z,16.04
2022-09-07T16:13:20.668Z,15.91
2022-09-07T16:15:47.884Z,15.77
2022-09-07T16:18:16.939Z,15.60
2022-09-07T16:20:44.110Z,15.41
2022-09-07T16:23:15.232Z,15.22
2022-09-07T16:25:43.411Z,15.00
2022-09-07T16:28:10.458Z,14.79
2022-09-07T16:30:40.701Z,14.61
2022-09-07T16:33:07.854Z,14.44
2022-09-07T16:35:34.671Z,14.28
2022-09-07T16:40:50.605Z,13.92
2022-09-07T16:48:07.766Z,13.43
2022-09-07T16:50:34.491Z,13.30
2022-09-07T16:53:01.231Z,13.15
2022-09-07T16:55:27.904Z,13.01
2022-09-07T17:00:41.985Z,12.69
2022-09-07T17:03:09.747Z,12.54
2022-09-07T17:05:40.539Z,12.39
2022-09-07T17:08:07.303Z,12.23
2022-09-07T17:10:33.944Z,12.08
2022-09-07T17:13:00.679Z,11.91
2022-09-07T17:15:27.309Z,11.76
2022-09-07T17:17:54.031Z,11.63
2022-09-07T17:20:20.768Z,11.54
2022-09-07T17:22:47.432Z,11.46
2022-09-07T17:25:14.236Z,11.36
2022-09-07T17:27:41.289Z,11.27
2022-09-07T17:30:11.104Z,11.21
2022-09-07T17:32:38.261Z,11.14
2022-09-07T17:35:05.927Z,11.06
2022-09-07T17:37:32.642Z,10.98
2022-09-07T17:39:59.309Z,10.89
2022-09-07T17:43:38.886Z,10.81
2022-09-07T17:45:14.807Z,10.75
2022-09-07T17:47:41.408Z,10.69
2022-09-07T17:50:08.482Z,10.61
2022-09-07T17:52:38.732Z,10.54
2022-09-07T17:55:07.609Z,10.48
2022-09-07T17:57:34.867Z,10.44
2022-09-07T18:00:12.208Z,10.41
2022-09-07T18:02:39.249Z,10.37
2022-09-07T18:05:07.054Z,10.34
2022-09-07T18:07:35.077Z,10.29
2022-09-07T18:10:01.942Z,10.23
2022-09-07T18:12:28.671Z,10.18
2022-09-07T18:14:55.420Z,10.15
2022-09-07T18:17:22.040Z,10.10
2022-09-07T18:19:48.911Z,10.02
2022-09-07T18:22:15.491Z,9.94
2022-09-07T18:24:42.320Z,9.89
2022-09-07T18:27:09.798Z,9.85
2022-09-07T18:29:37.296Z,9.82
2022-09-07T18:32:08.303Z,9.80
2022-09-07T18:34:36.278Z,9.77
2022-09-07T18:37:03.180Z,9.74
2022-09-07T18:39:30.016Z,9.72
2022-09-07T18:41:57.072Z,9.70
2022-09-07T18:47:21.464Z,9.67
2022-09-07T18:49:50.124Z,9.65
2022-09-07T18:55:07.091Z,9.57
2022-09-07T18:57:36.075Z,9.52
2022-09-07T19:00:04.906Z,9.47
2022-09-07T19:02:31.781Z,9.41
2022-09-07T19:07:45.224Z,9.31
2022-09-07T19:10:14.419Z,9.29
2022-09-07T19:12:45.483Z,9.25
2022-09-07T19:15:12.859Z,9.20
2022-09-07T19:17:39.506Z,9.15
2022-09-07T19:20:06.571Z,9.13
2022-09-07T19:22:33.314Z,9.12
2022-09-07T19:24:59.995Z,9.11
2022-09-07T19:27:27.235Z,9.09
2022-09-07T19:29:53.982Z,9.09
2022-09-07T19:32:20.709Z,9.08
2022-09-07T19:34:49.083Z,9.06
2022-09-07T19:37:15.873Z,9.02
2022-09-07T19:39:42.580Z,8.97
2022-09-07T19:42:09.294Z,8.93
2022-09-07T19:44:36.127Z,8.88
2022-09-07T19:47:02.918Z,8.87
2022-09-07T19:49:30.230Z,8.87
2022-09-07T19:51:56.930Z,8.84
2022-09-07T19:54:23.700Z,8.79
2022-09-07T19:56:50.317Z,8.76
2022-09-07T19:59:19.547Z,8.74
2022-09-07T20:01:48.301Z,8.69
2022-09-07T20:04:20.323Z,8.68
2022-09-07T20:06:49.784Z,8.64
2022-09-07T20:09:20.450Z,8.60
2022-09-07T20:11:47.848Z,8.58
2022-09-07T20:14:17.838Z,8.56
2022-09-07T20:16:44.735Z,8.54
2022-09-07T20:19:12.079Z,8.51
2022-09-07T20:21:38.962Z,8.49
2022-09-07T20:24:05.899Z,8.45
2022-09-07T20:26:33.146Z,8.40
2022-09-07T20:29:25.652Z,8.37
2022-09-07T20:31:46.913Z,8.37
2022-09-07T20:34:13.993Z,8.37
2022-09-07T20:36:40.839Z,8.36
2022-09-07T20:39:07.532Z,8.40
2022-09-07T20:41:34.492Z,8.44
2022-09-07T20:44:02.954Z,8.46
2022-09-07T20:46:30.506Z,8.47
2022-09-07T20:48:57.362Z,8.46
2022-09-07T20:51:24.261Z,8.44
2022-09-07T20:53:51.311Z,8.41
2022-09-07T20:56:22.634Z,8.39
2022-09-07T20:58:49.743Z,8.35
2022-09-07T21:01:17.974Z,8.32
2022-09-07T21:03:49.061Z,8.29
2022-09-07T21:06:16.474Z,8.26
2022-09-07T21:08:43.673Z,8.23
2022-09-07T21:11:11.138Z,8.20
2022-09-07T21:13:37.891Z,8.18
2022-09-07T21:16:05.566Z,8.20
2022-09-07T21:18:32.726Z,8.22
2022-09-07T21:21:19.336Z,8.21
2022-09-07T21:23:47.141Z,8.23
2022-09-07T21:26:13.767Z,8.25
2022-09-07T21:28:40.445Z,8.27
2022-09-07T21:31:08.076Z,8.27
2022-09-07T21:33:35.470Z,8.29
2022-09-07T21:36:06.685Z,8.31
2022-09-07T21:38:34.149Z,8.31
2022-09-07T21:41:12.264Z,8.31
2022-09-07T21:43:38.994Z,8.30
2022-09-07T21:46:16.750Z,8.29
2022-09-07T21:48:44.939Z,8.27
2022-09-07T21:51:15.102Z,8.24
2022-09-07T21:53:42.347Z,8.24
2022-09-07T21:56:11.531Z,8.25
2022-09-07T21:58:39.828Z,8.26
2022-09-07T22:01:16.370Z,8.26
2022-09-07T22:03:44.279Z,8.26
2022-09-07T22:06:11.486Z,8.25
2022-09-07T22:08:39.547Z,8.23
2022-09-07T22:11:11.439Z,8.24
2022-09-07T22:13:38.127Z,8.26
2022-09-07T22:16:05.131Z,8.27
2022-09-07T22:18:31.970Z,8.27
2022-09-07T22:21:05.388Z,8.29
2022-09-07T22:23:33.242Z,8.31
2022-09-07T22:26:00.095Z,8.35
2022-09-07T22:28:28.862Z,8.41
2022-09-07T22:30:56.089Z,8.47
2022-09-07T22:33:22.784Z,8.49
2022-09-07T22:35:49.498Z,8.49
2022-09-07T22:38:16.211Z,8.49
2022-09-07T22:40:42.877Z,8.48
2022-09-07T22:43:09.532Z,8.49
2022-09-07T22:45:36.366Z,8.50
2022-09-07T22:48:03.077Z,8.47
2022-09-07T22:50:29.738Z,8.41
2022-09-07T22:52:56.405Z,8.35
2022-09-07T22:55:23.069Z,8.32
2022-09-07T22:57:49.749Z,8.30
2022-09-07T23:00:16.884Z,8.27
2022-09-07T23:02:44.292Z,8.25
2022-09-07T23:05:11.467Z,8.22
2022-09-07T23:07:38.207Z,8.21
2022-09-07T23:10:05.105Z,8.20
2022-09-07T23:12:31.776Z,8.18
2022-09-07T23:14:58.582Z,8.18
2022-09-07T23:17:25.289Z,8.16
2022-09-07T23:19:51.933Z,8.14
2022-09-07T23:22:18.602Z,8.13
2022-09-07T23:24:45.263Z,8.12
2022-09-07T23:27:11.935Z,8.07
2022-09-07T23:29:38.580Z,8.02
2022-09-07T23:32:05.407Z,7.98
2022-09-07T23:34:32.011Z,7.96
2022-09-07T23:36:58.700Z,7.93
2022-09-07T23:39:25.378Z,7.90
2022-09-07T23:41:52.027Z,7.87
2022-09-07T23:44:18.957Z,7.86
2022-09-07T23:46:45.743Z,7.83
2022-09-07T23:49:12.407Z,7.80
2022-09-07T23:51:39.067Z,7.79
2022-09-07T23:54:05.815Z,7.82
2022-09-07T23:56:32.744Z,7.86
2022-09-07T23:58:59.403Z,7.88
